Wednesday, April 25, 2018, 5:06 AM EDT
Back to Local

KALB, Albany International Airport

Location: Latham, NY, United States Lat: 42.75
Local Time: 5:06 AM EDT ( 9:06 GMT) Lon: -73.8
Time Zone: US/Eastern Elev: 285 ft

Show me the last for .
Show Decoded

2018-04-25 04:51 METAR KALB 250851Z 00000KT 9SM -RA FEW036 BKN060 OVC075 09/07 A3009 RMK AO2
                 SLP189 P0005 60019 T00940072 57023 =
2018-04-25 03:51 METAR KALB 250751Z 00000KT 7SM -RA FEW038 FEW049 OVC060 09/07 A3011 RMK AO2
                 SLP196 P0007 T00940072 =
2018-04-25 02:51 METAR KALB 250651Z 00000KT 6SM -RA FEW035 SCT046 OVC055 10/07 A3014 RMK AO2
                 SLP205 P0007 T01000072 =
2018-04-25 01:51 METAR KALB 250551Z 20004KT 7SM -RA BKN047 OVC060 11/07 A3016 RMK AO2 SLP212
                 P0005 60006 T01060072 10167 20106 58009 =
2018-04-25 00:51 METAR KALB 250451Z 17005KT 8SM -RA OVC060 12/06 A3017 RMK AO2 RAE0359B29 SLP216
                 P0001 T01220061 402110072 =
2018-04-24 23:51 METAR KALB 250351Z 18007G18KT 10SM -RA FEW055 BKN085 OVC110 14/03 A3018 RMK AO2
                 RAB50 SLP219 PCPN VRY LGT P0000 T01390033 =
2018-04-24 22:51 METAR KALB 250251Z 17010KT 10SM BKN160 OVC170 14/02 A3018 RMK AO2 SLP222
                 T01440022 50010 =
2018-04-24 21:51 METAR KALB 250151Z 18011G19KT 10SM BKN150 OVC170 16/02 A3019 RMK AO2 SLP224
                 T01560017 =
2018-04-24 20:51 METAR KALB 250051Z 18010G19KT 10SM BKN170 OVC180 16/00 A3018 RMK AO2 SLP220
                 T01610000 =
2018-04-24 19:51 METAR KALB 242351Z 18015G22KT 10SM BKN180 OVC190 17/00 A3015 RMK AO2 PK WND
                 18028/2312 SLP211 T01670000 10211 20167 56008 =
2018-04-24 18:51 METAR KALB 242251Z 17010G20KT 10SM FEW140 BKN180 OVC250 18/M01 A3016 RMK AO2
                 SLP212 T01831011 =
2018-04-24 17:51 METAR KALB 242151Z 17013G22KT 10SM SCT210 BKN230 BKN260 19/M04 A3017 RMK AO2
                 SLP217 T01941039 =
2018-04-24 16:51 METAR KALB 242051Z 17014G24KT 10SM SCT210 BKN260 20/M03 A3018 RMK AO2 PK WND
                 15028/2031 SLP219 T02001028 56024 =
2018-04-24 15:51 METAR KALB 241951Z 16019G26KT 10SM SCT200 BKN260 21/M06 A3020 RMK AO2 PK WND
                 17027/1857 SLP227 T02111056 =
2018-04-24 14:51 METAR KALB 241851Z 18015G22KT 10SM FEW180 FEW220 SCT260 21/M06 A3023 RMK AO2
                 SLP236 SCT V BKN T02111056 =
2018-04-24 13:51 METAR KALB 241751Z 18012G20KT 10SM FEW180 FEW220 SCT260 21/M07 A3025 RMK AO2
                 SLP243 SCT V BKN T02061067 10206 20100 56033 =
2018-04-24 12:51 METAR KALB 241651Z 17014G20KT 10SM FEW180 FEW220 BKN260 20/M06 A3028 RMK AO2
                 SLP252 T02001056 =
2018-04-24 11:51 METAR KALB 241551Z 17009G15KT 10SM FEW180 FEW220 SCT260 18/M03 A3031 RMK AO2
                 SLP265 T01831033 =
2018-04-24 10:51 METAR KALB 241451Z 18008KT 10SM FEW180 FEW220 SCT260 16/M02 A3035 RMK AO2 SLP277
                 SCT V BKN T01611017 58011 =
2018-04-24 09:51 METAR KALB 241351Z 15005KT 10SM FEW200 SCT260 13/M01 A3036 RMK AO2 SLP282
                 T01331006 =
2018-04-24 08:51 METAR KALB 241251Z 16010KT 10SM FEW220 BKN260 11/M01 A3037 RMK AO2 SLP285
                 T01111011 =
2018-04-24 07:51 METAR KALB 241151Z 17006KT 10SM FEW220 BKN260 10/M02 A3038 RMK AO2 SLP288
                 T01001017 10111 20072 53009 =
2018-04-24 06:51 METAR KALB 241051Z 17008KT 10SM BKN260 08/M02 A3037 RMK AO2 SLP285 T00831022 =
2018-04-24 05:51 METAR KALB 240951Z 17005KT 10SM SCT260 07/M03 A3036 RMK AO2 SLP281 T00721033 =

Support USWX by starting your Amazon purchase here.